Ana Sayfa
METAR-TAF:

METAR-TAF

Havaalanları :

İlam Havaalanı

İlam, İran

Enlem: 33-35-09N, Boylam: 046-24-20E, yükseklik: 1334 m

Güncel hava durumu gözlemi

Rapor saat 16:00 UTC de 21 dakika önce yapıldı.
Rüzgar batı/kuzeybatıdan 8 kt
Sıcaklık 32°C
Nem 18%
Basınç 1006 hPa
Görüş mesafesi 10 km veya daha fazla
1500 m altında bulut yok ve kümülonimbus yok

METAR: OICI 141600Z 29008KT CAVOK 32/05 Q1006 A2972

Saat: 20:51 (16:21 UTC)

Tahmin

Rapor saat 11:10 UTC de 5 saat ve 11 dakika önce yapıldı.
Ayın 14'si saat 12 UTC'den ayın 15'si saat 18 UTC'ye kadar geçerli Tahmin
Rüzgar doğu/güneydoğudan 4 kt
Görüş mesafesi: 8000 m
Geçici
ayın 14'si saat 12 UTC'den ayın 14'si saat 15 UTC'ye kadar
Rüzgar batıdan 12 kt
Geçici
ayın 15'si saat 09 UTC'den ayın 15'si saat 15 UTC'ye kadar
Rüzgar batıdan 10 kt

TAF: OICI 141110Z 1412/1518 11004KT 8000 NSC TEMPO 1412/1415 27012KT TEMPO 1509/1515 26010KT

4.000'den fazla havaalanı için hava durumu gözlemleri ve tahminleri (METAR ve TAF raporları).

Kullanılabilir istasyonlar harita üzerinde sarı ve kırmızı noktalarla gösterilir.

İstasyonun adını görmek için fareyi noktanın üzerinde gezdirin.

Sonrasında hava gözlem ve tahminlerini görmek için tıklayın.

Haritayı değiştirmek için: yaklaştırmak için siyah artı işaretli yeşil düğmeye ve uzaklaştırmak için de eksi işaretli düğmeye hızla tıklayın; bitişik haritalar için yeşil okları kullanın.


METAR-TAF: